Weather observations for the past three days for
Fort Worth Spinks Airport
Metric (Imperial)
Date Time (cdt) Wind (kph) Vis. (km) Weather Sky Cond. Temperature (ºC) Relative Humidity Wind Chill (°C) Heat Index (°C) Pressure Precipitation (cm)
Air Dwpt 6 hour altimeter (cm) sea level (mb) 1 hr 3 hr 6 hr
Max. Min.
06 03:15 N 15 16.09 Overcast OVC018 16 12.8 81% 75.77 0.0
06 02:55 N 13 16.09 Overcast OVC020 16.2 12.8 80% 75.74 0.0
06 02:35 N 15 16.09 Overcast OVC021 16.1 12.9 81% 75.74 0.0
06 02:15 N 13 16.09 Overcast OVC022 16.2 12.7 80% 75.74 0.0
06 01:55 N 15 16.09 Overcast OVC024 16.3 13 81% 75.74 0.0
06 00:55 N 17 16.09 Overcast OVC025 17.2 13.6 26.7 17.2 80% 75.72 0.0
06 00:35 N 17 16.09 Overcast OVC025 17.6 13.9 79% 75.74 0.0
06 00:15 N 22 16.09 Overcast OVC025 18.1 13.9 77% 75.74 0.0
05 23:55 N 20 16.09 Overcast OVC026 18.8 14.6 77% 75.72 0.0
05 23:35 N 20 16.09 Overcast OVC027 19.2 14.9 76% 75.72 0.0
05 23:15 N 20 16.09 Overcast OVC027 19.7 14.9 74% 75.72 0.0
05 22:55 N 19 16.09 Overcast OVC028 19.9 14.7 72% 75.69 0.0
05 22:35 N 22 16.09 Overcast OVC027 20 14.8 72% 75.67 0.0
05 22:15 N 17 16.09 Mostly Cloudy BKN028 BKN036 20.2 15.3 74% 75.62 0.0
05 21:55 N 20 16.09 Overcast OVC029 21.2 15.6 71% 75.62 0.0
05 21:35 N 22 16.09 Overcast OVC029 21.7 15.8 69% 75.59 0.0
05 21:15 N 17 16.09 Overcast OVC030 22.4 16.6 70% 75.57 0.0
05 20:55 N 22 16.09 Overcast OVC030 23.1 16.9 68% 75.49 0.0
05 20:35 N 17 16.09 Overcast BKN032 OVC042 23.6 17.2 67% 75.46 0.0
05 20:15 N 15 16.09 Overcast BKN033 OVC042 24.3 17 64% 25 75.44 0.0
05 19:55 N 15 16.09 Overcast BKN033 OVC210 25 17.3 62% 26 75.39 0.0
05 17:50 S 13 G 28 16.09 A Few Clouds FEW060 31 21 55% 34 75.31 0.0
05 16:50 S 11 16.09 Fair CLR 32 21 52% 35 75.29 0.0
05 15:50 SW 13 16.09 Fair CLR 33 21 49% 36 75.34 0.0
05 14:50 SW 20 G 37 16.09 Fair CLR 32 21 52% 35 75.39 0.0
05 13:50 SW 19 G 37 16.09 Fair CLR 30 21 59% 33 75.41 0.0
05 12:53 SW 28 G 43 16.09 Fair CLR 29 21 62% 31 75.44 0.0
05 11:52 SW 20 G 35 16.09 Fair CLR 27 21 70% 29 75.44 0.0
05 10:46 SW 24 G 39 16.09 A Few Clouds FEW019 26 21 74% 27 75.44 0.0
05 09:47 S 20 G 39 16.09 Partly Cloudy SCT019 25 21 79% 26 75.44 0.0
05 08:54 S 20 G 35 16.09 Partly Cloudy SCT017 23 20 83% 75.41 0.0
05 07:48 S 20 16.09 A Few Clouds FEW020 22 20 88% 75.39 0.0
05 06:45 S 19 16.09 A Few Clouds FEW020 20 19 94% 75.34 0.0
05 06:35 S 20 16.09 Partly Cloudy SCT240 20.1 19.5 96% 75.36 0.0
05 06:15 S 22 16.09 A Few Clouds FEW250 20.1 19.4 96% 75.34 0.0
05 05:55 S 24 16.09 Fair CLR 20.2 19.5 96% 75.31 0.0
05 05:35 S 24 16.09 Fair CLR 20.4 19.6 95% 75.31 0.0
05 05:15 S 22 16.09 A Few Clouds FEW250 20.5 19.5 94% 75.34 0.0
05 04:55 S 20 G 33 16.09 A Few Clouds FEW250 20.6 19.5 93% 75.34 0.0
05 04:35 S 24 G 37 16.09 A Few Clouds FEW250 20.7 19.5 93% 75.34 0.0
05 04:15 S 22 16.09 Partly Cloudy FEW014 SCT250 20.8 19.6 93% 75.36 0.0
05 03:55 SW 24 G 37 16.09 Mostly Cloudy FEW014 BKN260 20.9 19.5 92% 75.36 0.0
05 03:35 S 24 G 35 16.09 Mostly Cloudy FEW015 SCT190 BKN260 20.9 19.5 92% 75.36 0.0
05 03:15 S 19 16.09 Overcast FEW015 OVC190 21.1 19.5 91% 75.36 0.0
05 02:55 S 20 16.09 Overcast OVC190 21.3 19.5 90% 75.39 0.0
05 02:35 S 20 16.09 Mostly Cloudy BKN190 21.6 19.5 88% 75.41 0.0
05 02:15 S 22 16.09 Fair CLR 21.7 19.4 87% 75.41 0.0
05 01:55 S 30 G 39 16.09 Fair CLR 22 19.2 84% 75.44 0.0
05 01:35 S 28 G 35 16.09 Fair CLR 22.1 19 83% 75.46 0.0
05 01:15 S 19 G 35 16.09 Fair CLR 22.2 18.8 81% 75.46 0.0
05 00:55 S 24 G 39 16.09 Fair CLR 22.5 18.6 25.1 22.5 79% 75.46 0.0
05 00:35 S 26 G 37 16.09 A Few Clouds FEW240 22.7 18.5 77% 75.44 0.0
05 00:15 S 28 G 43 16.09 Mostly Cloudy BKN240 23 18.2 74% 75.46 0.0
04 23:55 S 30 G 39 16.09 Fair CLR 23.6 18 71% 75.49 0.0
04 23:35 S 31 G 39 16.09 Fair CLR 23.8 18 70% 75.49 0.0
04 23:15 S 30 G 39 16.09 A Few Clouds FEW240 23.8 18 70% 75.49 0.0
04 22:55 S 26 16.09 Mostly Cloudy BKN240 23.7 18.1 71% 75.49 0.0
04 22:35 S 28 G 39 16.09 Mostly Cloudy FEW200 BKN230 23.8 18.2 71% 75.49 0.0
04 22:15 S 22 16.09 Mostly Cloudy BKN210 BKN230 23.7 18.1 71% 75.49 0.0
04 21:55 S 19 16.09 Mostly Cloudy SCT210 BKN250 23.5 18.2 72% 75.51 0.0
04 21:35 S 20 G 31 16.09 Partly Cloudy FEW220 SCT250 SCT270 23.5 18.1 72% 75.49 0.0
04 21:15 S 19 14.48 Fair CLR 23.6 18.2 72% 75.46 0.0
04 20:55 S 22 12.87 Fair CLR 23.6 18.2 72% 75.46 0.0
04 20:35 S 17 14.48 Fair CLR 23.7 18.2 71% 75.46 0.0
04 20:15 S 20 11.27 A Few Clouds FEW230 23.9 18.2 71% 25 75.46 0.0
04 19:55 S 19 11.27 Fair CLR 24.3 18.2 69% 25 75.46 0.0
04 18:50 S 26 G 37 16.09 Fair CLR 25 18 65% 26 75.51 0.0
04 17:50 S 22 G 41 16.09 Fair CLR 26 18 61% 27 75.54 0.0
04 16:50 S 30 G 43 16.09 Fair CLR 27 18 58% 28 75.57 0.0
04 15:50 S 26 G 44 16.09 A Few Clouds FEW042 28 18 55% 29 75.64 0.0
04 14:50 S 30 G 39 16.09 A Few Clouds FEW042 27 17 54% 28 75.74 0.0
04 13:50 S 30 G 41 16.09 A Few Clouds FEW040 26 17 58% 27 75.79 0.0
04 12:50 S 31 G 39 16.09 A Few Clouds FEW037 25 16 57% 26 75.87 0.0
04 11:50 S 28 G 44 16.09 A Few Clouds FEW030 23 16 65% 75.95 0.0
04 10:50 S 33 G 43 16.09 Fair and Breezy CLR 22 15 65% 76 0.0
04 09:50 S 31 G 52 16.09 Fair CLR 21 15 69% 76 0.0
04 08:47 S 28 G 37 16.09 Fair CLR 19 14 73% 76.02 0.0
04 07:47 S 20 G 35 16.09 Fair CLR 17 13 77% 76.02 0.0
04 06:47 S 19 16.09 Fair CLR 16 13 83% 76 0.0
04 06:35 S 19 16.09 Fair CLR 15.9 12.8 82% 76 0.0
04 06:15 S 17 16.09 Fair CLR 15.6 12.7 83% 76 0.0
04 05:55 S 17 16.09 Fair CLR 15.3 12.6 84% 76.02 0.0
04 05:35 S 17 16.09 Fair CLR 15.3 12.5 84% 76.02 0.0
04 05:15 S 19 16.09 Fair CLR 15.4 12.4 82% 76.02 0.0
04 04:55 S 15 16.09 Fair CLR 15.4 12.3 82% 76.05 0.0
04 04:35 S 15 16.09 Fair CLR 15.3 12.2 82% 76.05 0.0
04 04:15 S 15 16.09 Fair CLR 15.6 12 79% 76.05 0.0
04 03:55 S 17 16.09 Fair CLR 15.9 11.9 77% 76.07 0.0
04 03:35 S 17 16.09 Fair CLR 16.2 11.6 74% 76.07 0.0
04 03:15 S 17 16.09 Fair CLR 16.5 11.4 72% 76.07 0.0
04 02:55 S 22 16.09 Fair CLR 17 11 68% 76.1 0.0
04 02:35 S 20 16.09 Fair CLR 17 10.7 67% 76.1 0.0
04 02:15 S 20 16.09 Fair CLR 17.1 10.1 64% 76.12 0.0
04 01:55 S 17 16.09 Fair CLR 17.1 10.2 64% 76.12 0.0
04 01:35 S 19 16.09 Fair CLR 16.3 10.4 68% 76.15 0.0
04 01:15 S 11 16.09 Fair CLR 15.6 10.6 72% 76.17 0.0
04 00:55 S 9 16.09 Fair CLR 15 10.5 24.3 15 75% 76.17 0.0
04 00:35 S 9 16.09 Fair CLR 15.1 10.5 74% 76.2 0.0
04 00:15 S 9 16.09 Fair CLR 15.8 10.4 70% 76.2 0.0
03 23:55 S 9 16.09 Fair CLR 16.2 10.3 68% 76.23 0.0
03 23:35 S 13 16.09 Fair CLR 16.8 10.2 65% 76.23 0.0
03 23:15 S 11 16.09 Fair CLR 17.1 10.2 64% 76.25 0.0
03 22:55 S 15 16.09 Fair CLR 17.6 10.2 62% 76.25 0.0
03 22:35 S 15 16.09 Fair CLR 17.6 10.3 62% 76.23 0.0
03 22:15 S 11 16.09 Fair CLR 17.9 10.4 62% 76.23 0.0
03 21:55 S 13 16.09 Fair CLR 18.4 10.3 59% 76.2 0.0
03 21:35 S 13 16.09 Fair CLR 18.8 10.2 58% 76.23 0.0
03 21:15 S 15 16.09 Fair CLR 19.1 10 56% 76.2 0.0
03 20:55 S 13 16.09 Fair CLR 19.4 9.7 54% 76.2 0.0
03 20:35 S 13 16.09 Fair CLR 20.2 9.4 50% 76.2 0.0
03 20:15 S 13 16.09 Fair CLR 20.8 9 47% 76.17 0.0
03 19:55 S 13 16.09 Fair CLR 21.6 8.6 43% 76.2 0.0
03 18:50 S 22 G 35 16.09 Fair CLR 25 8 34% 26 76.2 0.0
03 17:50 S 24 G 37 16.09 Fair CLR 26 8 32% 26 76.25 0.0
03 16:50 S 19 16.09 Fair CLR 26 9 34% 26 76.28 0.0
03 15:50 SW 17 G 30 16.09 Fair CLR 27 9 32% 27 76.35 0.0
03 14:50 SW 17 G 30 16.09 Fair CLR 27 9 32% 27 76.43 0.0
03 13:55 S 19 G 28 16.09 A Few Clouds FEW080 27 10 34% 27 76.45 0.0
03 12:50 S 22 16.09 Fair CLR 26 10 37% 26 76.56 0.0
03 11:47 SW 15 16.09 Fair CLR 25 12 44% 26 76.63 0.0
03 10:48 SW 20 16.09 Fair CLR 23 11 47% 76.66 0.0
03 09:48 W 19 16.09 Fair CLR 21 11 53% 76.66 0.0
03 08:55 SW 17 16.09 Fair CLR 19 10 56% 76.66 0.0
03 07:46 S 7 16.09 Fair CLR 14 11 82% 76.63 0.0
03 06:48 S 9 16.09 Fair CLR 11 9 88% 76.58 0.0
03 06:35 S 9 16.09 Fair CLR 10.7 9.1 90% 76.58 0.0
03 06:15 S 9 16.09 Fair CLR 10.9 9.2 89% 76.56 0.0
03 05:55 S 9 16.09 Fair CLR 11.2 9.2 88% 76.56 0.0
03 05:35 SW 9 9.66 Fair with Haze CLR 11.6 9 84% 76.56 0.0
03 05:15 S 9 14.48 Fair CLR 11.5 9.1 85% 76.56 0.0
03 04:55 S 9 16.09 Fair CLR 11.9 9.1 83% 76.56 0.0
03 04:35 S 11 16.09 Fair CLR 11.9 9 83% 76.53 0.0
03 04:15 S 11 12.87 Fair CLR 12.2 8.9 80% 76.53 0.0
03 03:55 S 9 16.09 Fair CLR 12 8.9 82% 76.53 0.0
03 03:35 SW 9 16.09 Fair CLR 12.6 8.9 78% 76.5 0.0
Date Time (cdt) Wind (kph) Vis. (km) Weather Sky Cond. Air Dwpt Max. Min. Relative Humidity Wind Chill (°C) Heat Index (°C) altimeter (cm) sea level (mb) 1 hr 3 hr 6 hr
6 hour
Temperature (ºC) Pressure Precipitation (cm)